Time;durP1;ratioP1;P1;durP2;ratioP2;P2;SDS_P1;SDS_P2;PMS_P1;PMS_P2;Temp;Humidity;BMP_temperature;BMP_pressure;BME280_temperature;BME280_humidity;BME280_pressure;Samples;Min_cycle;Max_cycle;Signal;HPM_P1;HPM_P2
2021/08/22 00:02:04;;;;;;;19.95;17.85;;;18.40;99.90;;;;;;6031843;23;20023;-79
2021/08/22 00:04:31;;;;;;;19.90;17.95;;;18.40;99.90;;;;;;6031552;23;20151;-77
2021/08/22 00:06:57;;;;;;;22.25;20.17;;;18.40;99.90;;;;;;6031377;23;20016;-76
2021/08/22 00:09:24;;;;;;;21.75;19.55;;;18.40;99.90;;;;;;6001832;23;20364;-76
2021/08/22 00:11:50;;;;;;;22.65;20.55;;;18.40;99.90;;;;;;6028250;23;20516;-77
2021/08/22 00:14:16;;;;;;;22.25;20.10;;;18.40;99.90;;;;;;6006325;23;20023;-77
2021/08/22 00:16:42;;;;;;;22.48;20.20;;;18.40;99.90;;;;;;6004920;23;20029;-76
2021/08/22 00:19:11;;;;;;;22.65;20.45;;;18.40;99.90;;;;;;6001082;23;20027;-76
2021/08/22 00:21:37;;;;;;;23.60;21.33;;;18.40;99.90;;;;;;6031897;23;20087;-76
2021/08/22 00:24:03;;;;;;;24.02;21.52;;;18.40;99.90;;;;;;6028055;23;20295;-78
2021/08/22 00:26:29;;;;;;;23.70;21.50;;;18.40;99.90;;;;;;6030727;23;20280;-74
2021/08/22 00:28:55;;;;;;;22.65;20.45;;;18.40;99.90;;;;;;6027294;23;20019;-74
2021/08/22 00:31:21;;;;;;;24.77;22.27;;;18.40;99.90;;;;;;5979172;23;20345;-74
2021/08/22 00:33:50;;;;;;;22.95;20.65;;;18.40;99.90;;;;;;6002018;23;20030;-77
2021/08/22 00:36:16;;;;;;;22.63;20.40;;;18.40;99.90;;;;;;6002597;23;20152;-77
2021/08/22 00:38:44;;;;;;;21.83;19.55;;;18.40;99.90;;;;;;6008565;23;20087;-76
2021/08/22 00:41:14;;;;;;;22.73;20.30;;;18.40;99.90;;;;;;6030146;23;20106;-77
2021/08/22 00:43:45;;;;;;;22.50;20.30;;;18.40;99.90;;;;;;6007134;23;20074;-76
2021/08/22 00:46:10;;;;;;;22.05;19.95;;;18.30;99.90;;;;;;6031700;23;20023;-77
2021/08/22 00:48:42;;;;;;;23.88;21.27;;;18.40;99.90;;;;;;6031299;23;20034;-77
2021/08/22 00:51:08;;;;;;;24.00;21.55;;;18.30;99.90;;;;;;6032465;23;20135;-77
2021/08/22 00:53:36;;;;;;;24.15;21.70;;;18.30;99.90;;;;;;6035695;23;20393;-77
2021/08/22 00:56:04;;;;;;;23.38;21.13;;;18.20;99.90;;;;;;6027565;23;20175;-74
2021/08/22 00:58:32;;;;;;;24.52;22.13;;;18.20;99.90;;;;;;6032685;23;20027;-75
2021/08/22 01:01:01;;;;;;;24.27;21.85;;;18.20;99.90;;;;;;6008435;23;20110;-78
2021/08/22 01:03:40;;;;;;;25.35;22.80;;;18.20;99.90;;;;;;6008198;23;20020;-77
2021/08/22 01:06:19;;;;;;;25.35;22.88;;;18.20;99.90;;;;;;6029226;23;20126;-78
2021/08/22 01:08:58;;;;;;;26.47;23.87;;;18.20;99.90;;;;;;6029719;23;20063;-77
2021/08/22 01:11:26;;;;;;;27.17;24.48;;;18.20;99.90;;;;;;6034258;23;20075;-78
2021/08/22 01:13:57;;;;;;;26.90;24.20;;;18.20;99.90;;;;;;6004024;23;20019;-77
2021/08/22 01:16:28;;;;;;;27.58;24.63;;;18.30;99.90;;;;;;6007055;23;20385;-78
2021/08/22 01:18:58;;;;;;;25.23;22.73;;;18.30;99.90;;;;;;6027983;23;20031;-77
2021/08/22 01:21:25;;;;;;;;;;;18.20;99.90;;;;;;6031382;23;20027;-77
2021/08/22 01:23:58;;;;;;;26.45;23.60;;;18.20;99.90;;;;;;6005427;23;19918;-77
2021/08/22 01:26:37;;;;;;;27.45;24.73;;;18.20;99.90;;;;;;6028425;23;20015;-76
2021/08/22 01:29:04;;;;;;;31.10;27.97;;;18.20;99.90;;;;;;6009641;23;20030;-76
2021/08/22 01:31:39;;;;;;;29.48;26.60;;;18.20;99.90;;;;;;6033248;23;20022;-76
2021/08/22 01:34:05;;;;;;;29.60;26.73;;;18.20;99.90;;;;;;6033621;23;20046;-76
2021/08/22 01:36:32;;;;;;;31.50;28.05;;;18.20;99.90;;;;;;6005648;23;20637;-76
2021/08/22 01:38:58;;;;;;;31.30;28.08;;;18.20;99.90;;;;;;6030972;23;20048;-77
2021/08/22 01:41:25;;;;;;;34.72;31.27;;;18.20;99.90;;;;;;6005089;23;20022;-77
2021/08/22 01:43:53;;;;;;;31.88;28.60;;;18.20;99.90;;;;;;6006599;23;20020;-79
2021/08/22 01:46:39;;;;;;;34.85;31.30;;;18.20;99.90;;;;;;6029973;23;20015;-80
2021/08/22 01:49:08;;;;;;;36.42;32.63;;;18.10;99.90;;;;;;6028883;23;20093;-79
2021/08/22 01:51:34;;;;;;;42.13;37.28;;;18.10;99.90;;;;;;6031539;23;20051;-80
2021/08/22 01:54:09;;;;;;;37.40;33.20;;;18.10;99.90;;;;;;6029367;23;20026;-80
2021/08/22 01:56:40;;;;;;;52.92;39.38;;;18.00;99.90;;;;;;6034593;23;20019;-80
2021/08/22 01:59:09;;;;;;;41.13;33.38;;;18.00;99.90;;;;;;6031288;23;20311;-81
2021/08/22 02:01:37;;;;;;;31.20;27.90;;;18.00;99.90;;;;;;6031413;23;20583;-81
2021/08/22 02:04:08;;;;;;;35.83;32.00;;;17.90;99.90;;;;;;6030038;23;20023;-81
2021/08/22 02:06:52;;;;;;;36.90;33.10;;;17.90;99.90;;;;;;6031205;23;20023;-75
2021/08/22 02:09:23;;;;;;;33.55;30.08;;;17.90;99.90;;;;;;6032986;23;20019;-74
2021/08/22 02:11:54;;;;;;;34.08;30.50;;;17.90;99.90;;;;;;6029877;23;20035;-74
2021/08/22 02:14:23;;;;;;;31.75;28.48;;;17.90;99.90;;;;;;6031009;23;20030;-74
2021/08/22 02:16:53;;;;;;;60.65;42.75;;;17.80;99.90;;;;;;6007228;23;20955;-81
2021/08/22 02:19:20;;;;;;;56.22;39.40;;;17.80;99.90;;;;;;6009052;23;20019;-81
2021/08/22 02:21:46;;;;;;;66.47;42.58;;;17.80;99.90;;;;;;6030143;23;20022;-80
2021/08/22 02:24:13;;;;;;;38.42;34.22;;;17.80;99.90;;;;;;6032533;23;20075;-81
2021/08/22 02:26:39;;;;;;;59.08;41.90;;;17.80;99.90;;;;;;6011288;23;20054;-81
2021/08/22 02:29:05;;;;;;;35.22;31.42;;;17.80;99.90;;;;;;6034331;23;20110;-74
2021/08/22 02:31:31;;;;;;;66.57;44.03;;;17.80;99.90;;;;;;6008396;23;20031;-74
2021/08/22 02:33:58;;;;;;;43.40;37.80;;;17.70;99.90;;;;;;6031831;23;20040;-81
2021/08/22 02:36:26;;;;;;;36.78;32.80;;;17.70;99.90;;;;;;6032356;23;20026;-81
2021/08/22 02:38:53;;;;;;;39.97;32.85;;;17.70;99.90;;;;;;6010711;23;20070;-74
2021/08/22 02:41:19;;;;;;;39.28;35.10;;;17.70;99.90;;;;;;6009311;23;20051;-73
2021/08/22 02:43:45;;;;;;;48.90;37.70;;;17.70;99.90;;;;;;6009400;23;20057;-80
2021/08/22 02:46:12;;;;;;;38.40;33.72;;;17.70;99.90;;;;;;6033069;23;20023;-82
2021/08/22 02:48:38;;;;;;;35.78;31.88;;;17.60;99.90;;;;;;6010552;23;20594;-82
2021/08/22 02:51:04;;;;;;;41.45;34.38;;;17.60;99.90;;;;;;6033193;23;20520;-81
2021/08/22 02:53:30;;;;;;;37.92;33.88;;;17.60;99.90;;;;;;6034956;23;20031;-82
2021/08/22 02:55:57;;;;;;;39.30;35.08;;;17.60;99.90;;;;;;6031703;23;20023;-81
2021/08/22 02:58:23;;;;;;;37.05;32.72;;;17.50;99.90;;;;;;6029199;23;20446;-82
2021/08/22 03:00:49;;;;;;;41.78;36.30;;;17.50;99.90;;;;;;6030957;23;20524;-81
2021/08/22 03:03:15;;;;;;;44.97;40.17;;;17.50;99.90;;;;;;6033985;23;20027;-83
2021/08/22 03:05:41;;;;;;;56.20;41.45;;;17.50;99.90;;;;;;6005754;23;20019;-83
2021/08/22 03:08:07;;;;;;;68.63;45.72;;;17.50;99.90;;;;;;6030758;23;20053;-81
2021/08/22 03:10:33;;;;;;;58.90;43.67;;;17.50;99.90;;;;;;6012115;23;20019;-80
2021/08/22 03:13:01;;;;;;;58.38;43.63;;;17.50;99.90;;;;;;6033044;23;20031;-74
2021/08/22 03:15:27;;;;;;;38.45;34.42;;;17.50;99.90;;;;;;6007284;23;20413;-74
2021/08/22 03:17:53;;;;;;;37.20;33.33;;;17.50;99.90;;;;;;6029054;23;20019;-81
2021/08/22 03:20:19;;;;;;;40.42;35.13;;;17.50;99.90;;;;;;6005460;23;20106;-81
2021/08/22 03:22:45;;;;;;;38.25;34.15;;;17.60;99.90;;;;;;6031711;23;20392;-81
2021/08/22 03:25:14;;;;;;;39.13;35.00;;;17.60;99.90;;;;;;6027465;23;20049;-81
2021/08/22 03:27:41;;;;;;;67.95;43.58;;;17.60;99.90;;;;;;6005132;23;20020;-80
2021/08/22 03:30:11;;;;;;;78.47;46.85;;;17.60;99.90;;;;;;6033436;23;20718;-80
2021/08/22 03:32:40;;;;;;;43.50;37.92;;;17.60;99.90;;;;;;6005995;23;20051;-82
2021/08/22 03:35:07;;;;;;;35.33;31.17;;;17.60;99.90;;;;;;6032595;23;20115;-81
2021/08/22 03:37:33;;;;;;;41.50;35.35;;;17.60;99.90;;;;;;6010192;23;20504;-80
2021/08/22 03:39:58;;;;;;;38.75;34.67;;;17.60;99.90;;;;;;6032544;23;20023;-81
2021/08/22 03:42:24;;;;;;;39.83;35.75;;;17.60;99.90;;;;;;5981249;23;20098;-80
2021/08/22 03:44:53;;;;;;;37.65;33.85;;;17.60;99.90;;;;;;6033921;23;20047;-74
2021/08/22 03:47:19;;;;;;;38.08;34.03;;;17.60;99.90;;;;;;6006881;23;20019;-80
2021/08/22 03:49:45;;;;;;;38.05;33.95;;;17.60;99.90;;;;;;6028714;23;20022;-82
2021/08/22 03:52:11;;;;;;;38.83;34.72;;;17.60;99.90;;;;;;6030744;23;20046;-74
2021/08/22 03:54:40;;;;;;;41.53;34.47;;;17.50;99.90;;;;;;6029912;23;20023;-82
2021/08/22 03:57:16;;;;;;;39.25;34.60;;;17.50;99.90;;;;;;6007472;23;20019;-82
2021/08/22 03:59:41;;;;;;;39.03;34.33;;;17.40;99.90;;;;;;6006123;23;20020;-83
2021/08/22 04:02:08;;;;;;;41.40;34.83;;;17.40;99.90;;;;;;6005469;23;20147;-85
2021/08/22 04:04:33;;;;;;;125.00;51.28;;;17.40;99.90;;;;;;6009529;23;20029;-76
2021/08/22 04:06:59;;;;;;;186.88;58.20;;;17.40;99.90;;;;;;6029786;23;20027;-75
2021/08/22 04:09:26;;;;;;;91.70;53.67;;;17.40;99.90;;;;;;6030893;23;20047;-75
2021/08/22 04:11:56;;;;;;;86.95;51.08;;;17.40;99.90;;;;;;6006576;23;20070;-75
2021/08/22 04:14:23;;;;;;;181.30;62.72;;;17.40;99.90;;;;;;6032434;23;20023;-81
2021/08/22 04:16:49;;;;;;;103.00;56.13;;;17.40;99.90;;;;;;6005620;23;20102;-81
2021/08/22 04:19:18;;;;;;;104.13;59.05;;;17.50;99.90;;;;;;6032315;23;20025;-81
2021/08/22 04:21:44;;;;;;;119.38;62.80;;;17.50;99.90;;;;;;6011423;23;20027;-74
2021/08/22 04:24:10;;;;;;;58.85;46.05;;;17.40;99.90;;;;;;6032209;23;20550;-74
2021/08/22 04:26:40;;;;;;;97.80;55.03;;;17.40;99.90;;;;;;6013481;23;20015;-74
2021/08/22 04:29:09;;;;;;;;;;;17.40;99.90;;;;;;6034421;23;20019;-74
2021/08/22 04:31:35;;;;;;;49.33;40.53;;;17.40;99.90;;;;;;5985415;23;19929;-81
2021/08/22 04:34:01;;;;;;;41.85;36.75;;;17.30;99.90;;;;;;6033066;23;20094;-74
2021/08/22 04:36:27;;;;;;;49.60;41.00;;;17.30;99.90;;;;;;6030605;23;20015;-81
2021/08/22 04:38:56;;;;;;;53.83;42.25;;;17.30;99.90;;;;;;6005559;23;20111;-80
2021/08/22 04:41:23;;;;;;;56.58;46.05;;;17.40;99.90;;;;;;6006985;23;20050;-80
2021/08/22 04:43:51;;;;;;;113.50;48.65;;;17.40;99.90;;;;;;6008461;23;20016;-83
2021/08/22 04:46:19;;;;;;;72.75;46.95;;;17.40;99.90;;;;;;6006503;23;20523;-80
2021/08/22 04:48:48;;;;;;;46.30;38.90;;;17.40;99.90;;;;;;6008447;23;20460;-81
2021/08/22 04:51:14;;;;;;;48.17;38.83;;;17.40;99.90;;;;;;6007661;23;20102;-80
2021/08/22 04:53:39;;;;;;;45.63;37.60;;;17.40;99.90;;;;;;6030232;23;20564;-81
2021/08/22 04:56:08;;;;;;;48.25;40.17;;;17.40;99.90;;;;;;6033614;23;20535;-81
2021/08/22 04:58:38;;;;;;;48.55;41.45;;;17.40;99.90;;;;;;6007731;23;20020;-81
2021/08/22 05:01:04;;;;;;;49.47;39.97;;;17.40;99.90;;;;;;6006668;23;20019;-81
2021/08/22 05:03:30;;;;;;;48.97;39.53;;;17.40;99.90;;;;;;6032013;23;20023;-81
2021/08/22 05:05:56;;;;;;;44.00;37.38;;;17.40;99.90;;;;;;6031362;23;20026;-82
2021/08/22 05:08:22;;;;;;;49.50;40.45;;;17.40;99.90;;;;;;5982785;23;20011;-83
2021/08/22 05:10:53;;;;;;;50.92;40.47;;;17.40;99.90;;;;;;5981806;23;20023;-82
2021/08/22 05:13:19;;;;;;;43.30;38.45;;;17.40;99.90;;;;;;6029054;23;20038;-82
2021/08/22 05:15:45;;;;;;;42.47;37.65;;;17.30;99.90;;;;;;6029785;23;20162;-81
2021/08/22 05:18:11;;;;;;;42.50;37.85;;;17.30;99.90;;;;;;6029661;23;20024;-73
2021/08/22 05:20:37;;;;;;;45.78;39.30;;;17.30;99.90;;;;;;6008954;23;20022;-80
2021/08/22 05:23:03;;;;;;;44.78;37.83;;;17.30;99.90;;;;;;6033350;23;20023;-80
2021/08/22 05:25:29;;;;;;;44.35;38.13;;;17.30;99.90;;;;;;6007837;23;20030;-79
2021/08/22 05:27:55;;;;;;;41.97;37.38;;;17.30;99.90;;;;;;6008036;23;20238;-80
2021/08/22 05:30:21;;;;;;;45.28;38.58;;;17.30;99.90;;;;;;6006846;23;20019;-83
2021/08/22 05:32:47;;;;;;;42.63;36.70;;;17.30;99.90;;;;;;6032953;23;20515;-75
2021/08/22 05:35:22;;;;;;;45.92;37.70;;;17.30;99.90;;;;;;6008635;23;20027;-73
2021/08/22 05:37:48;;;;;;;44.67;35.65;;;17.30;99.90;;;;;;6008598;23;20015;-73
2021/08/22 05:40:14;;;;;;;36.10;32.05;;;17.30;99.90;;;;;;6006957;23;20027;-73
2021/08/22 05:42:40;;;;;;;37.10;33.03;;;17.30;99.90;;;;;;6031581;23;20027;-73
2021/08/22 05:45:09;;;;;;;38.03;31.98;;;17.30;99.90;;;;;;6032965;23;20026;-74
2021/08/22 05:47:39;;;;;;;34.97;31.38;;;17.30;99.90;;;;;;6036524;23;20483;-74
2021/08/22 05:50:08;;;;;;;38.08;32.33;;;17.30;99.90;;;;;;6007109;23;20023;-81
2021/08/22 05:52:35;;;;;;;31.45;27.42;;;17.40;99.90;;;;;;6011325;23;20046;-81
2021/08/22 05:55:06;;;;;;;32.15;27.65;;;17.30;99.90;;;;;;6008321;23;20872;-74
2021/08/22 05:57:33;;;;;;;27.58;24.75;;;17.30;99.90;;;;;;6032712;23;20051;-82
2021/08/22 05:59:59;;;;;;;31.75;27.92;;;17.30;99.90;;;;;;6008689;23;20049;-82
2021/08/22 06:02:26;;;;;;;29.58;26.48;;;17.30;99.90;;;;;;6007225;23;20047;-81
2021/08/22 06:04:52;;;;;;;27.20;24.33;;;17.40;99.90;;;;;;6034057;23;20019;-81
2021/08/22 06:07:21;;;;;;;30.15;26.85;;;17.30;99.90;;;;;;6030902;23;20029;-81
2021/08/22 06:09:51;;;;;;;29.77;25.88;;;17.30;99.90;;;;;;6008167;23;20015;-82
2021/08/22 06:12:18;;;;;;;35.67;29.90;;;17.40;99.90;;;;;;6030693;23;20019;-83
2021/08/22 06:14:45;;;;;;;31.45;28.10;;;17.40;99.90;;;;;;6030136;23;20027;-85
2021/08/22 06:17:26;;;;;;;32.95;29.15;;;17.30;99.90;;;;;;6040983;23;20107;-82
2021/08/22 06:19:52;;;;;;;38.40;31.38;;;17.40;99.90;;;;;;6033855;23;20027;-83
2021/08/22 06:22:18;;;;;;;38.67;29.98;;;17.40;99.90;;;;;;6033940;23;20035;-82
2021/08/22 06:24:44;;;;;;;35.65;29.25;;;17.40;99.90;;;;;;6034369;23;20030;-84
2021/08/22 06:27:10;;;;;;;28.98;25.95;;;17.40;99.90;;;;;;6006899;23;20054;-74
2021/08/22 06:29:36;;;;;;;28.65;25.67;;;17.30;99.90;;;;;;6032304;23;20023;-73
2021/08/22 06:32:03;;;;;;;43.70;31.55;;;17.40;99.90;;;;;;6008394;23;20050;-74
2021/08/22 06:34:29;;;;;;;41.10;33.35;;;17.40;99.90;;;;;;5983466;23;20066;-81
2021/08/22 06:36:57;;;;;;;37.00;32.58;;;17.40;99.90;;;;;;6006378;23;20090;-84
2021/08/22 06:39:23;;;;;;;33.90;30.40;;;17.40;99.90;;;;;;6008371;23;20349;-82
2021/08/22 06:41:49;;;;;;;58.65;37.80;;;17.40;99.90;;;;;;6029175;23;20019;-82
2021/08/22 06:44:15;;;;;;;46.33;37.10;;;17.40;99.90;;;;;;6029905;23;20332;-82
2021/08/22 06:46:41;;;;;;;47.40;36.13;;;17.40;99.90;;;;;;6034875;23;20070;-81
2021/08/22 06:49:09;;;;;;;38.35;33.40;;;17.40;99.90;;;;;;6031014;23;20050;-82
2021/08/22 06:51:35;;;;;;;49.70;36.30;;;17.40;99.90;;;;;;6035555;23;20445;-73
2021/08/22 06:54:04;;;;;;;39.72;34.33;;;17.40;99.90;;;;;;6032488;23;20337;-74
2021/08/22 06:56:31;;;;;;;53.20;40.17;;;17.40;99.90;;;;;;5984434;23;20019;-74
2021/08/22 06:59:01;;;;;;;51.47;40.28;;;17.50;99.90;;;;;;6007688;23;20015;-73
2021/08/22 07:01:29;;;;;;;65.82;43.88;;;17.50;99.90;;;;;;6027943;23;20019;-73
2021/08/22 07:03:55;;;;;;;61.45;44.60;;;17.50;99.90;;;;;;6032418;23;20023;-73
2021/08/22 07:06:21;;;;;;;56.92;42.92;;;17.50;99.90;;;;;;6030902;23;20382;-73
2021/08/22 07:08:46;;;;;;;51.40;40.53;;;17.50;99.90;;;;;;6028898;23;20015;-73
2021/08/22 07:11:13;;;;;;;49.95;38.85;;;17.50;99.90;;;;;;6027371;23;20024;-73
2021/08/22 07:13:40;;;;;;;61.75;44.42;;;17.50;99.90;;;;;;6033151;23;20015;-73
2021/08/22 07:16:09;;;;;;;53.72;42.42;;;17.50;99.90;;;;;;6032661;23;20027;-73
2021/08/22 07:18:35;;;;;;;58.42;44.10;;;17.50;99.90;;;;;;6030193;23;20019;-73
2021/08/22 07:21:03;;;;;;;51.60;39.40;;;17.50;99.90;;;;;;6030386;23;20026;-73
2021/08/22 07:23:29;;;;;;;71.10;46.38;;;17.50;99.90;;;;;;6036237;23;20020;-73
2021/08/22 07:25:55;;;;;;;56.85;40.22;;;17.50;99.90;;;;;;6030736;23;20019;-73
2021/08/22 07:28:21;;;;;;;53.70;40.63;;;17.50;99.90;;;;;;6007265;23;20015;-73
2021/08/22 07:30:47;;;;;;;66.45;43.42;;;17.60;99.90;;;;;;5985395;23;20027;-74
2021/08/22 07:33:13;;;;;;;57.70;41.88;;;17.60;99.90;;;;;;6007283;23;20330;-73
2021/08/22 07:35:39;;;;;;;60.40;41.55;;;17.70;99.90;;;;;;6006613;23;20027;-73
2021/08/22 07:38:05;;;;;;;52.17;40.53;;;17.70;99.90;;;;;;6032478;23;20019;-73
2021/08/22 07:40:34;;;;;;;78.68;48.50;;;17.70;99.90;;;;;;6037534;23;20349;-82
2021/08/22 07:43:00;;;;;;;68.15;46.05;;;17.70;99.90;;;;;;6009109;23;20325;-82
2021/08/22 07:45:26;;;;;;;60.17;43.50;;;17.70;99.90;;;;;;6028610;23;20026;-82
2021/08/22 07:47:52;;;;;;;56.47;42.22;;;17.80;99.90;;;;;;6005450;23;20023;-83
2021/08/22 07:50:24;;;;;;;57.90;41.92;;;17.80;99.90;;;;;;6031476;23;20904;-82
2021/08/22 07:52:50;;;;;;;56.88;41.72;;;17.80;99.90;;;;;;6034427;23;20019;-83
2021/08/22 07:55:16;;;;;;;74.65;47.53;;;17.90;99.90;;;;;;6030931;23;20456;-82
2021/08/22 07:57:42;;;;;;;79.60;47.30;;;17.80;99.90;;;;;;5980424;23;20026;-82
2021/08/22 08:00:13;;;;;;;60.90;44.40;;;17.80;99.90;;;;;;6031102;23;20070;-82
2021/08/22 08:02:39;;;;;;;57.70;42.65;;;17.80;99.90;;;;;;6006879;23;20099;-82
2021/08/22 08:05:05;;;;;;;61.45;45.85;;;17.90;99.90;;;;;;6030341;23;20047;-81
2021/08/22 08:07:31;;;;;;;59.55;45.58;;;17.90;99.90;;;;;;6007364;23;20237;-83
2021/08/22 08:09:59;;;;;;;48.85;40.13;;;18.10;99.90;;;;;;5981943;23;20023;-83
2021/08/22 08:12:27;;;;;;;57.92;44.03;;;18.10;99.90;;;;;;6030136;23;20030;-83
2021/08/22 08:14:53;;;;;;;49.10;41.10;;;18.20;99.90;;;;;;6031661;23;20024;-82
2021/08/22 08:17:20;;;;;;;48.83;40.47;;;18.30;99.90;;;;;;6030075;23;20026;-82
2021/08/22 08:19:46;;;;;;;43.85;39.13;;;18.40;99.90;;;;;;6006182;23;20094;-73
2021/08/22 08:22:13;;;;;;;42.35;37.78;;;18.50;99.90;;;;;;5980742;23;20027;-73
2021/08/22 08:24:39;;;;;;;40.58;36.25;;;18.60;99.90;;;;;;5983474;23;20496;-73
2021/08/22 08:27:05;;;;;;;40.88;35.83;;;18.60;99.90;;;;;;6030444;23;20075;-73
2021/08/22 08:29:31;;;;;;;42.50;37.15;;;18.60;99.90;;;;;;6027924;23;20027;-73
2021/08/22 08:31:57;;;;;;;42.85;37.55;;;18.60;99.90;;;;;;6030115;23;20023;-74
2021/08/22 08:34:23;;;;;;;37.47;33.70;;;18.60;99.90;;;;;;6027530;23;20095;-74
2021/08/22 08:36:49;;;;;;;38.17;33.97;;;18.60;99.90;;;;;;6003724;23;20043;-74
2021/08/22 08:39:18;;;;;;;37.58;33.53;;;18.60;99.90;;;;;;6004137;23;20030;-74
2021/08/22 08:41:45;;;;;;;37.60;33.70;;;18.60;99.90;;;;;;6029711;23;20023;-74
2021/08/22 08:44:13;;;;;;;35.67;31.95;;;18.50;99.90;;;;;;6030334;23;20027;-73
2021/08/22 08:46:39;;;;;;;32.40;29.08;;;18.50;99.90;;;;;;6031111;23;20357;-74
2021/08/22 08:49:43;;;;;;;28.70;25.80;;;18.50;99.90;;;;;;6026510;23;20023;-74
2021/08/22 08:52:33;;;;;;;24.10;21.70;;;18.60;99.90;;;;;;6004267;23;20035;-74
2021/08/22 08:55:34;;;;;;;21.13;19.00;;;18.60;99.90;;;;;;6002798;23;20079;-73
2021/08/22 08:58:01;;;;;;;17.02;15.48;;;18.60;99.90;;;;;;5996857;23;20045;-73
2021/08/22 09:00:28;;;;;;;13.82;12.52;;;18.60;99.90;;;;;;6008014;23;20033;-82
2021/08/22 09:02:56;;;;;;;11.73;10.63;;;18.60;99.90;;;;;;6033932;23;20030;-81
2021/08/22 09:05:59;;;;;;;12.43;11.32;;;18.70;99.90;;;;;;6030140;23;20019;-82
2021/08/22 09:08:55;;;;;;;11.00;9.90;;;18.70;99.90;;;;;;6009004;23;20030;-81
2021/08/22 09:11:53;;;;;;;11.48;10.38;;;18.80;99.90;;;;;;6006553;23;20115;-81
2021/08/22 09:14:49;;;;;;;7.70;7.00;;;19.00;99.90;;;;;;6030573;23;20034;-81
2021/08/22 09:17:46;;;;;;;7.65;6.95;;;19.30;99.90;;;;;;6008957;23;20028;-81
2021/08/22 09:20:50;;;;;;;5.15;4.65;;;19.50;99.90;;;;;;6009123;23;20071;-75
2021/08/22 09:23:34;;;;;;;5.97;5.15;;;19.70;99.90;;;;;;6033013;23;20472;-73
2021/08/22 09:26:34;;;;;;;6.03;5.13;;;19.80;99.90;;;;;;6010409;23;20027;-73
2021/08/22 09:29:37;;;;;;;8.25;5.45;;;19.90;99.90;;;;;;6033840;23;20091;-74
2021/08/22 09:32:41;;;;;;;6.10;5.50;;;19.80;99.90;;;;;;6033338;23;20658;-73
2021/08/22 09:35:38;;;;;;;6.30;5.70;;;19.80;99.90;;;;;;6007638;23;20352;-74
2021/08/22 09:38:19;;;;;;;7.20;6.50;;;19.80;99.90;;;;;;6007697;23;20026;-74
2021/08/22 09:41:07;;;;;;;10.85;8.23;;;19.70;99.90;;;;;;6010610;23;20547;-74
2021/08/22 09:43:38;;;;;;;10.05;9.15;;;19.60;99.90;;;;;;6007311;23;20023;-74
2021/08/22 09:46:46;;;;;;;13.55;12.40;;;19.60;99.90;;;;;;6006638;23;20563;-73
2021/08/22 09:49:49;;;;;;;14.10;12.98;;;19.60;99.90;;;;;;6032278;23;20449;-74
2021/08/22 09:52:53;;;;;;;13.80;12.60;;;19.60;99.90;;;;;;6028025;23;20023;-74
2021/08/22 09:55:38;;;;;;;15.27;14.02;;;19.60;99.90;;;;;;6005039;23;20522;-74
2021/08/22 09:58:35;;;;;;;16.75;15.45;;;19.60;99.90;;;;;;6004099;23;20417;-74
2021/08/22 10:01:07;;;;;;;18.67;17.08;;;19.60;99.90;;;;;;6006360;23;20016;-75
2021/08/22 10:03:54;;;;;;;19.40;17.73;;;19.70;99.90;;;;;;6029761;23;20019;-74
2021/08/22 10:07:08;;;;;;;15.65;14.35;;;19.70;99.90;;;;;;6027937;23;20027;-75
2021/08/22 10:10:10;;;;;;;15.77;14.38;;;19.80;99.90;;;;;;5977615;23;20030;-74
2021/08/22 10:12:39;;;;;;;11.68;10.63;;;19.90;99.90;;;;;;6034433;23;20027;-73
2021/08/22 10:15:06;;;;;;;10.83;9.70;;;20.00;99.90;;;;;;6028881;23;20023;-74
2021/08/22 10:17:33;;;;;;;10.00;9.00;;;20.10;99.90;;;;;;6027496;23;20298;-74
2021/08/22 10:19:59;;;;;;;8.43;7.53;;;20.30;99.90;;;;;;6030959;23;20023;-74
2021/08/22 10:22:24;;;;;;;6.93;5.80;;;20.70;99.90;;;;;;5982883;23;20038;-73
2021/08/22 10:24:56;;;;;;;7.47;6.20;;;21.00;99.90;;;;;;6029437;23;20105;-72
2021/08/22 10:27:37;;;;;;;6.00;5.20;;;21.30;99.90;;;;;;6008894;23;20516;-72
2021/08/22 10:30:04;;;;;;;6.82;5.35;;;21.50;99.90;;;;;;6034390;23;20444;-79
2021/08/22 10:32:58;;;;;;;5.60;5.05;;;21.50;99.90;;;;;;6033516;23;20018;-79
2021/08/22 10:35:25;;;;;;;7.03;5.22;;;21.40;99.90;;;;;;6000758;23;20027;-79
2021/08/22 10:37:54;;;;;;;7.70;7.00;;;21.40;99.90;;;;;;6005883;23;20078;-79
2021/08/22 10:40:23;;;;;;;8.05;7.32;;;21.30;99.90;;;;;;6032774;23;20473;-80
2021/08/22 10:43:04;;;;;;;8.87;8.07;;;21.20;99.90;;;;;;6006871;23;20356;-78
2021/08/22 10:45:42;;;;;;;9.18;8.32;;;21.00;99.90;;;;;;6033504;23;20385;-79
2021/08/22 10:48:30;;;;;;;9.82;8.82;;;20.80;99.90;;;;;;6008576;23;20960;-79
2021/08/22 10:50:59;;;;;;;9.68;8.05;;;20.60;99.90;;;;;;6031526;23;20019;-79
2021/08/22 10:53:41;;;;;;;9.73;8.73;;;20.50;99.90;;;;;;6006813;23;20114;-79
2021/08/22 10:56:22;;;;;;;9.30;8.45;;;20.50;99.90;;;;;;6002616;23;20023;-79
2021/08/22 10:59:04;;;;;;;10.80;8.60;;;20.50;99.90;;;;;;6033907;23;20321;-79
2021/08/22 11:01:38;;;;;;;6.78;6.07;;;20.50;99.90;;;;;;6006514;23;20353;-79
2021/08/22 11:04:13;;;;;;;6.57;5.72;;;20.50;99.90;;;;;;6032883;23;20015;-72
2021/08/22 11:06:51;;;;;;;6.50;5.07;;;20.40;99.90;;;;;;6036063;23;20449;-72
2021/08/22 11:09:45;;;;;;;6.10;5.50;;;20.30;99.90;;;;;;6007181;23;20030;-72
2021/08/22 11:12:25;;;;;;;6.75;5.18;;;20.40;99.90;;;;;;6029531;23;20045;-72
2021/08/22 11:14:52;;;;;;;6.47;5.15;;;20.40;99.90;;;;;;6029666;23;20098;-72
2021/08/22 11:17:18;;;;;;;5.45;4.20;;;20.30;99.90;;;;;;6030968;23;20451;-73
2021/08/22 11:19:44;;;;;;;5.82;4.90;;;20.30;99.90;;;;;;6028953;23;20023;-72
2021/08/22 11:22:29;;;;;;;3.90;3.50;;;20.30;99.90;;;;;;6031210;23;20461;-72
2021/08/22 11:24:57;;;;;;;5.07;3.78;;;20.30;99.90;;;;;;6007458;23;20026;-73
2021/08/22 11:27:25;;;;;;;4.57;3.63;;;20.20;99.90;;;;;;6007705;23;20086;-72
2021/08/22 11:29:56;;;;;;;5.28;4.28;;;20.20;99.90;;;;;;6030673;23;20015;-72
2021/08/22 11:32:22;;;;;;;5.13;4.40;;;20.10;99.90;;;;;;6006649;23;20019;-73
2021/08/22 11:34:48;;;;;;;5.00;4.38;;;20.10;99.90;;;;;;6033501;23;20051;-72
2021/08/22 11:37:16;;;;;;;6.18;4.63;;;20.00;99.90;;;;;;6006000;23;20044;-72
2021/08/22 11:39:42;;;;;;;5.10;4.60;;;19.90;99.90;;;;;;6009772;23;20158;-72
2021/08/22 11:42:08;;;;;;;7.07;4.95;;;19.90;99.90;;;;;;6030458;23;20066;-73
2021/08/22 11:44:34;;;;;;;6.10;4.38;;;19.90;99.90;;;;;;6008538;23;20492;-72
2021/08/22 11:47:01;;;;;;;6.50;4.78;;;20.00;99.90;;;;;;6006175;23;20019;-73
2021/08/22 11:49:27;;;;;;;5.30;4.00;;;20.00;99.90;;;;;;6006695;23;20030;-73
2021/08/22 11:51:55;;;;;;;5.10;4.22;;;20.20;99.90;;;;;;6007930;23;20027;-72
2021/08/22 11:54:22;;;;;;;4.65;4.13;;;20.30;99.90;;;;;;6030529;23;20511;-72
2021/08/22 11:56:48;;;;;;;5.20;4.20;;;20.30;99.90;;;;;;6032075;23;20075;-73
2021/08/22 11:59:28;;;;;;;5.53;3.90;;;20.30;99.90;;;;;;6031648;23;20023;-73
2021/08/22 12:02:25;;;;;;;4.35;3.78;;;20.30;99.90;;;;;;6032439;23;20025;-73
2021/08/22 12:05:23;;;;;;;4.63;3.83;;;20.30;99.90;;;;;;6010724;23;20027;-72
2021/08/22 12:08:02;;;;;;;4.78;4.25;;;20.30;99.90;;;;;;5982510;23;20026;-72
2021/08/22 12:10:29;;;;;;;4.85;3.90;;;20.40;99.90;;;;;;5981264;23;20083;-73
2021/08/22 12:12:56;;;;;;;4.88;4.07;;;20.50;99.90;;;;;;6030528;23;20377;-72
2021/08/22 12:15:39;;;;;;;4.50;3.95;;;20.50;99.90;;;;;;6032791;23;20452;-72
2021/08/22 12:18:29;;;;;;;4.05;3.65;;;20.60;99.90;;;;;;6033757;23;20019;-72
2021/08/22 12:21:09;;;;;;;4.55;3.47;;;20.70;99.90;;;;;;6030626;23;20045;-72
2021/08/22 12:23:36;;;;;;;4.22;3.15;;;20.70;99.90;;;;;;6007178;23;20275;-77
2021/08/22 12:26:23;;;;;;;4.28;3.45;;;20.70;99.90;;;;;;6009781;23;20623;-77
2021/08/22 12:28:54;;;;;;;3.75;3.35;;;20.80;99.90;;;;;;6009666;23;20071;-78
2021/08/22 12:31:31;;;;;;;5.20;3.35;;;21.10;99.90;;;;;;6007532;23;20413;-77
2021/08/22 12:33:57;;;;;;;5.43;3.70;;;21.60;99.90;;;;;;6031605;23;20030;-79
2021/08/22 12:36:44;;;;;;;4.80;3.70;;;21.80;99.90;;;;;;6008037;23;20047;-78
2021/08/22 12:39:12;;;;;;;5.47;3.80;;;22.00;99.50;;;;;;6034709;23;20074;-78
2021/08/22 12:41:56;;;;;;;4.03;2.63;;;22.10;99.20;;;;;;6006816;23;20413;-79
2021/08/22 12:44:24;;;;;;;3.50;2.67;;;22.30;98.80;;;;;;6033156;23;20157;-79
2021/08/22 12:46:59;;;;;;;3.67;2.70;;;22.30;97.40;;;;;;5982917;23;20461;-78
2021/08/22 12:49:26;;;;;;;3.85;2.80;;;22.40;96.60;;;;;;6009417;23;20019;-78
2021/08/22 12:51:53;;;;;;;4.30;3.40;;;22.50;97.10;;;;;;6033934;23;20055;-77
2021/08/22 12:54:24;;;;;;;3.20;2.30;;;22.70;96.60;;;;;;6007130;23;20339;-78